createdAt,value
2023-05-21T00:02:24.538Z,12.64
2023-05-21T00:04:52.659Z,12.63
2023-05-21T00:07:21.090Z,12.62
2023-05-21T00:09:49.063Z,12.60
2023-05-21T00:12:17.016Z,12.58
2023-05-21T00:14:44.992Z,12.55
2023-05-21T00:17:12.962Z,12.52
2023-05-21T00:19:40.932Z,12.50
2023-05-21T00:22:09.376Z,12.48
2023-05-21T00:24:37.371Z,12.45
2023-05-21T00:27:05.712Z,12.42
2023-05-21T00:29:33.618Z,12.39
2023-05-21T00:32:01.670Z,12.38
2023-05-21T00:34:29.812Z,12.35
2023-05-21T00:36:57.730Z,12.32
2023-05-21T00:39:26.190Z,12.29
2023-05-21T00:41:54.156Z,12.25
2023-05-21T00:44:22.292Z,12.21
2023-05-21T00:46:53.774Z,12.18
2023-05-21T00:49:24.518Z,12.16
2023-05-21T00:51:53.120Z,12.12
2023-05-21T00:54:22.185Z,12.10
2023-05-21T00:56:51.345Z,12.09
2023-05-21T00:59:19.505Z,12.07
2023-05-21T01:01:54.018Z,12.05
2023-05-21T01:04:25.453Z,12.04
2023-05-21T01:06:53.671Z,12.02
2023-05-21T01:09:22.413Z,12.00
2023-05-21T01:11:51.753Z,11.98
2023-05-21T01:14:20.827Z,11.98
2023-05-21T01:16:50.350Z,11.98
2023-05-21T01:19:23.878Z,12.00
2023-05-21T01:21:53.010Z,12.01
2023-05-21T01:24:21.261Z,12.03
2023-05-21T01:26:49.650Z,12.07
2023-05-21T01:29:17.673Z,12.09
2023-05-21T01:31:59.580Z,12.10
2023-05-21T01:34:45.866Z,12.09
2023-05-21T01:37:27.046Z,12.04
2023-05-21T01:40:05.588Z,11.99
2023-05-21T01:42:36.201Z,11.95
2023-05-21T01:45:07.064Z,11.92
2023-05-21T01:47:37.488Z,11.89
2023-05-21T01:50:06.856Z,11.87
2023-05-21T01:52:34.903Z,11.86
2023-05-21T01:55:03.682Z,11.83
2023-05-21T01:57:32.005Z,11.78
2023-05-21T02:00:01.232Z,11.75
2023-05-21T02:02:29.326Z,11.73
2023-05-21T02:04:57.387Z,11.71
2023-05-21T02:07:25.324Z,11.68
2023-05-21T02:09:53.222Z,11.65
2023-05-21T02:12:21.389Z,11.62
2023-05-21T02:14:50.462Z,11.59
2023-05-21T02:17:18.627Z,11.54
2023-05-21T02:19:46.623Z,11.48
2023-05-21T02:22:14.613Z,11.43
2023-05-21T02:24:42.991Z,11.39
2023-05-21T02:27:13.473Z,11.36
2023-05-21T02:29:41.587Z,11.33
2023-05-21T02:32:09.566Z,11.31
2023-05-21T02:34:42.410Z,11.30
2023-05-21T02:37:10.523Z,11.28
2023-05-21T02:39:38.496Z,11.25
2023-05-21T02:42:07.499Z,11.22
2023-05-21T02:44:35.927Z,11.19
2023-05-21T02:47:04.144Z,11.15
2023-05-21T02:49:32.567Z,11.12
2023-05-21T02:52:00.581Z,11.11
2023-05-21T02:54:28.574Z,11.11
2023-05-21T02:56:56.722Z,11.13
2023-05-21T02:59:24.747Z,11.12
2023-05-21T03:01:52.853Z,11.10
2023-05-21T03:04:24.055Z,11.08
2023-05-21T03:06:54.968Z,11.07
2023-05-21T03:09:23.038Z,11.07
2023-05-21T03:11:51.065Z,11.08
2023-05-21T03:14:19.313Z,11.09
2023-05-21T03:16:47.501Z,11.11
2023-05-21T03:19:15.635Z,11.17
2023-05-21T03:21:44.695Z,11.24
2023-05-21T03:24:13.797Z,11.31
2023-05-21T03:26:41.832Z,11.37
2023-05-21T03:29:10.305Z,11.45
2023-05-21T03:31:39.883Z,11.54
2023-05-21T03:34:10.564Z,11.63
2023-05-21T03:36:38.619Z,11.73
2023-05-21T03:39:07.091Z,11.84
2023-05-21T03:41:35.378Z,11.95
2023-05-21T03:44:08.860Z,12.08
2023-05-21T03:46:47.947Z,12.19
2023-05-21T03:49:26.873Z,12.32
2023-05-21T03:51:56.538Z,12.46
2023-05-21T03:54:24.599Z,12.64
2023-05-21T03:56:55.509Z,12.83
2023-05-21T03:59:24.274Z,12.99
2023-05-21T04:01:52.822Z,13.15
2023-05-21T04:04:20.837Z,13.31
2023-05-21T04:06:51.175Z,13.46
2023-05-21T04:09:19.324Z,13.67
2023-05-21T04:11:48.024Z,13.90
2023-05-21T04:14:16.059Z,14.13
2023-05-21T04:16:44.095Z,14.35
2023-05-21T04:19:12.227Z,14.57
2023-05-21T04:21:42.059Z,14.80
2023-05-21T04:24:10.200Z,14.96
2023-05-21T04:26:48.186Z,15.13
2023-05-21T04:29:21.269Z,15.41
2023-05-21T04:31:50.137Z,15.71
2023-05-21T04:34:18.923Z,16.02
2023-05-21T04:36:47.149Z,16.35
2023-05-21T04:39:16.363Z,16.70
2023-05-21T04:41:44.936Z,17.04
2023-05-21T04:44:15.045Z,17.36
2023-05-21T04:46:46.187Z,17.63
2023-05-21T04:49:15.401Z,17.92
2023-05-21T04:51:43.354Z,18.23
2023-05-21T04:54:11.506Z,18.58
2023-05-21T04:56:39.577Z,18.89
2023-05-21T04:59:07.650Z,19.20
2023-05-21T05:01:38.634Z,19.48
2023-05-21T05:04:06.807Z,19.69
2023-05-21T05:06:34.841Z,19.87
2023-05-21T05:09:02.999Z,20.11
2023-05-21T05:11:31.810Z,20.36
2023-05-21T05:13:59.795Z,20.57
2023-05-21T05:16:29.763Z,20.80
2023-05-21T05:18:58.035Z,21.02
2023-05-21T05:21:26.060Z,21.21
2023-05-21T05:23:54.149Z,21.41
2023-05-21T05:26:26.227Z,21.61
2023-05-21T05:28:54.263Z,21.80
2023-05-21T05:31:22.233Z,21.94
2023-05-21T05:33:50.426Z,22.10
2023-05-21T05:36:18.484Z,22.18
2023-05-21T05:38:47.268Z,22.29
2023-05-21T05:41:15.305Z,22.46
2023-05-21T05:43:43.379Z,22.67
2023-05-21T05:46:11.395Z,22.88
2023-05-21T05:48:40.273Z,23.12
2023-05-21T05:51:08.433Z,23.32
2023-05-21T05:53:36.590Z,23.52
2023-05-21T05:56:05.055Z,23.70
2023-05-21T05:58:33.237Z,23.92
2023-05-21T06:01:13.403Z,24.17
2023-05-21T06:03:41.684Z,24.37
2023-05-21T06:06:15.596Z,24.52
2023-05-21T06:08:43.877Z,24.69
2023-05-21T06:11:17.139Z,24.90
2023-05-21T06:13:45.791Z,25.12
2023-05-21T06:16:14.238Z,25.27
2023-05-21T06:18:42.793Z,25.40
2023-05-21T06:21:11.143Z,25.49
2023-05-21T06:23:39.669Z,25.53
2023-05-21T06:26:08.456Z,25.60
2023-05-21T06:28:36.987Z,25.69
2023-05-21T06:31:05.495Z,25.71
2023-05-21T06:33:34.175Z,25.73
2023-05-21T06:36:02.258Z,25.81
2023-05-21T06:38:30.698Z,25.89
2023-05-21T06:40:58.707Z,25.93
2023-05-21T06:43:46.925Z,25.97
2023-05-21T06:46:35.939Z,25.99
2023-05-21T06:49:07.943Z,25.99
2023-05-21T06:51:36.032Z,25.95
2023-05-21T06:54:04.681Z,25.94
2023-05-21T06:56:32.806Z,25.95
2023-05-21T06:59:00.802Z,25.96
2023-05-21T07:01:29.039Z,25.95
2023-05-21T07:03:58.196Z,25.96
2023-05-21T07:06:26.742Z,25.97
2023-05-21T07:08:54.878Z,25.91
2023-05-21T07:11:25.292Z,25.89
2023-05-21T07:13:53.283Z,25.91
2023-05-21T07:16:21.451Z,25.92
2023-05-21T07:18:49.976Z,25.90
2023-05-21T07:21:18.132Z,25.87
2023-05-21T07:23:49.835Z,25.83
2023-05-21T07:26:18.003Z,25.82
2023-05-21T07:28:46.324Z,25.81
2023-05-21T07:31:14.377Z,25.62
2023-05-21T07:33:46.489Z,25.26
2023-05-21T07:36:14.822Z,25.05
2023-05-21T07:38:44.159Z,25.01
2023-05-21T07:41:12.191Z,24.85
2023-05-21T07:43:40.433Z,24.52
2023-05-21T07:46:08.422Z,24.44
2023-05-21T07:48:37.869Z,24.47
2023-05-21T07:51:06.185Z,24.47
2023-05-21T07:53:34.247Z,24.44
2023-05-21T07:56:04.614Z,24.51
2023-05-21T07:58:35.300Z,24.57
2023-05-21T08:01:03.796Z,24.62
2023-05-21T08:03:32.576Z,24.71
2023-05-21T08:06:00.673Z,24.79
2023-05-21T08:08:28.799Z,24.86
2023-05-21T08:10:57.694Z,24.91
2023-05-21T08:13:28.747Z,24.95
2023-05-21T08:15:56.777Z,24.96
2023-05-21T08:18:25.489Z,24.99
2023-05-21T08:20:55.814Z,25.02
2023-05-21T08:23:24.691Z,25.04
2023-05-21T08:25:55.722Z,25.07
2023-05-21T08:28:23.743Z,24.82
2023-05-21T08:30:52.696Z,24.57
2023-05-21T08:33:22.937Z,24.61
2023-05-21T08:35:50.869Z,24.72
2023-05-21T08:38:28.670Z,24.84
2023-05-21T08:41:05.947Z,25.00
2023-05-21T08:43:34.519Z,25.17
2023-05-21T08:46:04.765Z,25.25
2023-05-21T08:48:38.107Z,25.29
2023-05-21T08:51:06.467Z,25.36
2023-05-21T08:53:38.505Z,25.44
2023-05-21T08:56:09.480Z,25.47
2023-05-21T08:58:47.209Z,25.52
2023-05-21T09:01:19.578Z,25.54
2023-05-21T09:03:52.628Z,25.50
2023-05-21T09:06:21.668Z,25.42
2023-05-21T09:08:58.771Z,25.34
2023-05-21T09:11:42.544Z,25.32
2023-05-21T09:14:11.666Z,25.30
2023-05-21T09:17:09.011Z,25.27
2023-05-21T09:19:37.172Z,25.26
2023-05-21T09:22:05.192Z,25.30
2023-05-21T09:24:36.233Z,25.25
2023-05-21T09:27:07.232Z,25.23
2023-05-21T09:29:35.603Z,25.34
2023-05-21T09:32:08.117Z,25.45
2023-05-21T09:34:37.272Z,25.53
2023-05-21T09:37:16.487Z,25.53
2023-05-21T09:39:48.846Z,25.54
2023-05-21T09:42:17.274Z,25.55
2023-05-21T09:44:45.548Z,25.49
2023-05-21T09:47:19.896Z,25.51
2023-05-21T09:49:49.293Z,25.53
2023-05-21T09:52:25.360Z,25.60
2023-05-21T09:54:53.522Z,25.69
2023-05-21T09:57:26.428Z,25.76
2023-05-21T09:59:54.742Z,25.84
2023-05-21T10:02:24.679Z,25.91
2023-05-21T10:04:54.650Z,25.98
2023-05-21T10:07:28.928Z,25.98
2023-05-21T10:09:58.018Z,25.90
2023-05-21T10:12:28.836Z,25.90
2023-05-21T10:15:12.051Z,25.93
2023-05-21T10:17:41.084Z,25.94
2023-05-21T10:20:11.761Z,26.02
2023-05-21T10:22:40.984Z,26.02
2023-05-21T10:25:09.500Z,26.02
2023-05-21T10:27:37.685Z,26.09
2023-05-21T10:30:07.210Z,26.03
2023-05-21T10:32:35.336Z,25.98
2023-05-21T10:35:03.716Z,25.99
2023-05-21T10:37:31.730Z,26.07
2023-05-21T10:39:59.897Z,26.16
2023-05-21T10:42:48.157Z,26.24
2023-05-21T10:45:50.722Z,26.33
2023-05-21T10:48:43.713Z,26.37
2023-05-21T10:52:00.486Z,26.39
2023-05-21T10:54:56.290Z,26.51
2023-05-21T10:57:58.394Z,26.63
2023-05-21T11:00:27.488Z,26.60
2023-05-21T11:02:55.634Z,26.59
2023-05-21T11:05:40.579Z,26.65
2023-05-21T11:08:31.688Z,26.66
2023-05-21T11:10:59.711Z,26.68
2023-05-21T11:13:31.434Z,26.73
2023-05-21T11:15:59.500Z,26.69
2023-05-21T11:18:39.650Z,26.60
2023-05-21T11:21:13.652Z,26.58
2023-05-21T11:23:51.206Z,26.60
2023-05-21T11:26:27.864Z,26.57
2023-05-21T11:29:04.748Z,26.51
2023-05-21T11:31:38.422Z,26.43
2023-05-21T11:34:32.203Z,26.39
2023-05-21T11:37:18.821Z,26.39
2023-05-21T11:39:48.213Z,26.44
2023-05-21T11:42:35.403Z,26.44
2023-05-21T11:45:04.239Z,26.41
2023-05-21T11:47:32.801Z,26.43
2023-05-21T11:50:02.789Z,26.45
2023-05-21T11:52:31.882Z,26.52
2023-05-21T11:55:00.067Z,26.62
2023-05-21T11:57:32.383Z,26.67
2023-05-21T12:00:02.420Z,26.70
2023-05-21T12:02:46.197Z,26.75
2023-05-21T12:05:14.501Z,26.82
2023-05-21T12:07:42.745Z,26.90
2023-05-21T12:10:11.388Z,27.01
2023-05-21T12:12:53.277Z,27.11
2023-05-21T12:15:24.581Z,27.07
2023-05-21T12:17:53.377Z,27.04
2023-05-21T12:20:22.417Z,27.07
2023-05-21T12:22:50.555Z,27.12
2023-05-21T12:25:20.604Z,27.15
2023-05-21T12:27:50.991Z,27.24
2023-05-21T12:30:19.521Z,27.30
2023-05-21T12:32:48.994Z,27.29
2023-05-21T12:35:24.429Z,27.24
2023-05-21T12:37:53.051Z,27.19
2023-05-21T12:40:22.276Z,27.10
2023-05-21T12:42:51.655Z,27.11
2023-05-21T12:45:21.161Z,27.17
2023-05-21T12:47:50.755Z,27.22
2023-05-21T12:50:21.234Z,27.18
2023-05-21T12:52:49.320Z,27.11
2023-05-21T12:55:17.654Z,27.07
2023-05-21T12:57:46.227Z,27.04
2023-05-21T13:00:14.472Z,27.11
2023-05-21T13:02:44.444Z,27.19
2023-05-21T13:05:17.795Z,27.23
2023-05-21T13:07:48.965Z,27.30
2023-05-21T13:10:17.398Z,27.42
2023-05-21T13:12:46.157Z,27.54
2023-05-21T13:15:14.496Z,27.74
2023-05-21T13:17:42.617Z,27.90
2023-05-21T13:20:20.466Z,27.97
2023-05-21T13:22:51.834Z,28.04
2023-05-21T13:25:22.431Z,28.21
2023-05-21T13:27:51.963Z,28.30
2023-05-21T13:30:20.971Z,28.33
2023-05-21T13:32:49.355Z,28.30
2023-05-21T13:35:17.815Z,28.26
2023-05-21T13:37:46.061Z,28.32
2023-05-21T13:40:15.750Z,28.32
2023-05-21T13:42:45.644Z,28.34
2023-05-21T13:45:16.038Z,28.30
2023-05-21T13:47:45.403Z,28.22
2023-05-21T13:50:13.696Z,28.12
2023-05-21T13:52:41.765Z,28.09
2023-05-21T13:55:10.802Z,28.06
2023-05-21T13:57:40.587Z,28.05
2023-05-21T14:00:10.567Z,28.10
2023-05-21T14:02:38.712Z,28.17
2023-05-21T14:05:07.067Z,28.15
2023-05-21T14:07:35.054Z,28.16
2023-05-21T14:10:03.040Z,28.19
2023-05-21T14:12:31.369Z,28.14
2023-05-21T14:14:59.438Z,28.05
2023-05-21T14:17:27.445Z,27.99
2023-05-21T14:19:55.935Z,27.98
2023-05-21T14:22:24.090Z,28.00
2023-05-21T14:24:52.812Z,28.01
2023-05-21T14:27:21.021Z,27.97
2023-05-21T14:29:49.043Z,27.94
2023-05-21T14:32:18.442Z,27.89
2023-05-21T14:34:46.470Z,27.85
2023-05-21T14:37:14.404Z,27.80
2023-05-21T14:39:42.291Z,27.71
2023-05-21T14:42:10.498Z,27.61
2023-05-21T14:44:38.458Z,27.45
2023-05-21T14:47:06.446Z,27.27
2023-05-21T14:49:34.413Z,27.15
2023-05-21T14:52:02.370Z,27.09
2023-05-21T14:54:30.397Z,27.02
2023-05-21T14:56:58.380Z,26.89
2023-05-21T14:59:26.331Z,26.78
2023-05-21T15:01:54.422Z,26.75
2023-05-21T15:04:22.510Z,26.77
2023-05-21T15:06:51.268Z,26.73
2023-05-21T15:09:19.177Z,26.67
2023-05-21T15:11:47.155Z,26.67
2023-05-21T15:14:15.110Z,26.73
2023-05-21T15:16:43.162Z,26.72
2023-05-21T15:19:11.975Z,26.75
2023-05-21T15:21:40.006Z,26.76
2023-05-21T15:24:08.112Z,26.80
2023-05-21T15:26:36.138Z,26.81
2023-05-21T15:29:04.187Z,26.81
2023-05-21T15:31:32.783Z,26.85
2023-05-21T15:34:00.935Z,26.89
2023-05-21T15:36:28.876Z,26.91
2023-05-21T15:38:56.942Z,26.85
2023-05-21T15:41:24.873Z,26.80
2023-05-21T15:43:52.855Z,26.75
2023-05-21T15:46:21.202Z,26.75
2023-05-21T15:48:49.246Z,26.78
2023-05-21T15:51:20.893Z,26.76
2023-05-21T15:53:48.897Z,26.76
2023-05-21T15:56:16.946Z,26.75
2023-05-21T15:58:44.961Z,26.71
2023-05-21T16:01:13.172Z,26.66
2023-05-21T16:03:41.210Z,26.60
2023-05-21T16:06:10.405Z,26.51
2023-05-21T16:08:38.295Z,26.39
2023-05-21T16:11:06.418Z,26.33
2023-05-21T16:13:34.409Z,26.33
2023-05-21T16:16:02.560Z,26.35
2023-05-21T16:18:30.779Z,26.31
2023-05-21T16:20:58.729Z,26.25
2023-05-21T16:23:26.707Z,26.21
2023-05-21T16:25:54.658Z,26.22
2023-05-21T16:28:24.441Z,26.19
2023-05-21T16:30:52.552Z,26.13
2023-05-21T16:33:20.534Z,26.12
2023-05-21T16:35:48.494Z,26.10
2023-05-21T16:38:16.587Z,26.06
2023-05-21T16:40:45.356Z,26.01
2023-05-21T16:43:13.417Z,25.94
2023-05-21T16:45:43.416Z,25.89
2023-05-21T16:48:12.879Z,25.85
2023-05-21T16:50:41.257Z,25.78
2023-05-21T16:53:09.977Z,25.70
2023-05-21T16:55:38.533Z,25.65
2023-05-21T16:58:06.960Z,25.63
2023-05-21T17:00:34.971Z,25.60
2023-05-21T17:03:03.237Z,25.53
2023-05-21T17:05:31.376Z,25.45
2023-05-21T17:07:59.451Z,25.36
2023-05-21T17:10:27.770Z,25.31
2023-05-21T17:12:56.361Z,25.27
2023-05-21T17:15:26.818Z,25.26
2023-05-21T17:17:54.769Z,25.22
2023-05-21T17:20:22.868Z,25.15
2023-05-21T17:22:50.803Z,25.07
2023-05-21T17:25:19.241Z,25.01
2023-05-21T17:27:47.395Z,24.92
2023-05-21T17:30:15.649Z,24.84
2023-05-21T17:32:43.710Z,24.78
2023-05-21T17:35:11.622Z,24.72
2023-05-21T17:37:39.631Z,24.65
2023-05-21T17:40:08.338Z,24.57
2023-05-21T17:42:36.325Z,24.50
2023-05-21T17:45:04.828Z,24.43
2023-05-21T17:47:34.651Z,24.33
2023-05-21T17:50:02.786Z,24.22
2023-05-21T17:52:30.946Z,24.15
2023-05-21T17:54:58.858Z,24.09
2023-05-21T17:57:26.820Z,23.98
2023-05-21T17:59:55.592Z,23.83
2023-05-21T18:02:23.652Z,23.69
2023-05-21T18:04:52.729Z,23.61
2023-05-21T18:07:22.280Z,23.56
2023-05-21T18:09:50.389Z,23.43
2023-05-21T18:12:18.671Z,23.22
2023-05-21T18:14:47.541Z,23.02
2023-05-21T18:17:15.796Z,22.80
2023-05-21T18:19:43.835Z,22.62
2023-05-21T18:22:11.945Z,22.45
2023-05-21T18:24:39.888Z,22.30
2023-05-21T18:27:07.895Z,22.16
2023-05-21T18:29:39.726Z,22.03
2023-05-21T18:32:10.942Z,21.92
2023-05-21T18:34:39.066Z,21.81
2023-05-21T18:37:07.045Z,21.72
2023-05-21T18:39:35.050Z,21.63
2023-05-21T18:42:12.825Z,21.55
2023-05-21T18:44:45.774Z,21.47
2023-05-21T18:47:13.895Z,21.39
2023-05-21T18:49:41.982Z,21.30
2023-05-21T18:52:09.929Z,21.23
2023-05-21T18:54:37.883Z,21.16
2023-05-21T18:57:06.789Z,21.10
2023-05-21T18:59:35.092Z,21.04
2023-05-21T19:02:04.398Z,20.98
2023-05-21T19:04:33.294Z,20.90
2023-05-21T19:07:02.783Z,20.83
2023-05-21T19:09:30.732Z,20.78
2023-05-21T19:12:00.547Z,20.75
2023-05-21T19:14:28.587Z,20.71
2023-05-21T19:16:57.025Z,20.67
2023-05-21T19:19:25.451Z,20.64
2023-05-21T19:21:53.610Z,20.61
2023-05-21T19:24:21.748Z,20.59
2023-05-21T19:26:50.062Z,20.57
2023-05-21T19:29:18.116Z,20.55
2023-05-21T19:31:46.136Z,20.52
2023-05-21T19:34:14.093Z,20.48
2023-05-21T19:36:51.987Z,20.43
2023-05-21T19:39:21.521Z,20.36
2023-05-21T19:41:49.572Z,20.30
2023-05-21T19:44:18.736Z,20.24
2023-05-21T19:46:46.736Z,20.18
2023-05-21T19:49:15.938Z,20.12
2023-05-21T19:51:44.038Z,20.06
2023-05-21T19:54:12.115Z,20.00
2023-05-21T19:56:40.152Z,19.93
2023-05-21T19:59:08.238Z,19.87
2023-05-21T20:01:39.537Z,19.82
2023-05-21T20:04:07.771Z,19.76
2023-05-21T20:06:36.137Z,19.70
2023-05-21T20:09:05.385Z,19.63
2023-05-21T20:11:34.450Z,19.56
2023-05-21T20:14:02.437Z,19.50
2023-05-21T20:16:30.471Z,19.44
2023-05-21T20:18:58.547Z,19.33
2023-05-21T20:21:26.653Z,19.26
2023-05-21T20:23:54.711Z,19.21
2023-05-21T20:26:23.252Z,19.17
2023-05-21T20:28:51.420Z,19.12
2023-05-21T20:31:19.578Z,19.07
2023-05-21T20:33:50.567Z,19.05
2023-05-21T20:36:21.177Z,18.99
2023-05-21T20:38:49.341Z,18.95
2023-05-21T20:41:17.491Z,18.94
2023-05-21T20:43:46.058Z,18.88
2023-05-21T20:46:14.142Z,18.82
2023-05-21T20:48:43.617Z,18.77
2023-05-21T20:51:12.179Z,18.71
2023-05-21T20:53:43.761Z,18.66
2023-05-21T20:56:14.880Z,18.61
2023-05-21T20:58:42.862Z,18.55
2023-05-21T21:01:11.126Z,18.50
2023-05-21T21:03:41.385Z,18.45
2023-05-21T21:06:09.831Z,18.40
2023-05-21T21:08:40.379Z,18.35
2023-05-21T21:11:09.063Z,18.31
2023-05-21T21:13:37.126Z,18.27
2023-05-21T21:16:05.930Z,18.23
2023-05-21T21:18:34.184Z,18.19
2023-05-21T21:21:02.219Z,18.15
2023-05-21T21:23:30.316Z,18.10
2023-05-21T21:25:58.549Z,18.05
2023-05-21T21:28:26.576Z,18.00
2023-05-21T21:30:54.682Z,17.94
2023-05-21T21:33:24.396Z,17.89
2023-05-21T21:35:52.499Z,17.84
2023-05-21T21:38:20.463Z,17.78
2023-05-21T21:40:48.654Z,17.74
2023-05-21T21:43:16.690Z,17.70
2023-05-21T21:45:44.819Z,17.66
2023-05-21T21:48:13.031Z,17.60
2023-05-21T21:50:41.254Z,17.55
2023-05-21T21:53:14.036Z,17.51
2023-05-21T21:55:42.216Z,17.47
2023-05-21T21:58:10.464Z,17.42
2023-05-21T22:00:38.796Z,17.35
2023-05-21T22:03:07.016Z,17.27
2023-05-21T22:05:35.696Z,17.23
2023-05-21T22:08:03.861Z,17.18
2023-05-21T22:10:33.650Z,17.14
2023-05-21T22:13:02.978Z,17.07
2023-05-21T22:15:32.311Z,17.00
2023-05-21T22:18:03.639Z,16.94
2023-05-21T22:20:33.156Z,16.89
2023-05-21T22:23:01.319Z,16.85
2023-05-21T22:25:29.330Z,16.82
2023-05-21T22:27:57.326Z,16.78
2023-05-21T22:30:25.265Z,16.75
2023-05-21T22:32:53.359Z,16.73
2023-05-21T22:35:21.415Z,16.69
2023-05-21T22:37:49.393Z,16.68
2023-05-21T22:40:17.594Z,16.66
2023-05-21T22:42:47.122Z,16.64
2023-05-21T22:45:15.386Z,16.62
2023-05-21T22:47:43.368Z,16.59
2023-05-21T22:50:11.368Z,16.55
2023-05-21T22:52:39.482Z,16.52
2023-05-21T22:55:11.279Z,16.48
2023-05-21T22:57:39.567Z,16.45
2023-05-21T23:00:09.128Z,16.42
2023-05-21T23:02:37.436Z,16.37
2023-05-21T23:05:05.765Z,16.30
2023-05-21T23:07:33.744Z,16.28
2023-05-21T23:10:01.819Z,16.25
2023-05-21T23:12:29.985Z,16.22
2023-05-21T23:14:57.937Z,16.19
2023-05-21T23:17:26.378Z,16.17
2023-05-21T23:19:54.364Z,16.15
2023-05-21T23:22:22.358Z,16.13
2023-05-21T23:24:51.110Z,16.11
2023-05-21T23:27:19.224Z,16.09
2023-05-21T23:29:47.485Z,16.07
2023-05-21T23:32:15.546Z,16.04
2023-05-21T23:34:43.586Z,16.02
2023-05-21T23:37:11.642Z,16.00
2023-05-21T23:39:39.916Z,15.97
2023-05-21T23:42:08.014Z,15.94
2023-05-21T23:44:35.992Z,15.91
2023-05-21T23:47:04.280Z,15.88
2023-05-21T23:49:32.217Z,15.85
2023-05-21T23:52:00.303Z,15.82
2023-05-21T23:54:28.291Z,15.79
2023-05-21T23:56:56.226Z,15.76
2023-05-21T23:59:24.230Z,15.72
